Main page
METAR-TAF:

METAR-TAF

Airports :

Beauvais–Tillé Airport

Beauvais, France

latitude: 49-28N, longitude: 002-07E, elevation: 109 m

Current weather observation

The report was made 24 minutes ago, at 22:00 UTC
Wind 8 kt from the West/Southwest, varying between South/Southwest and West
Temperature 14°C
Humidity 88%
Pressure 1021 hPa
Visibility 10 km or more
Broken clouds at a height of 1200 ft
Overcast at a height of 1800 ft
light rain, drizzle

METAR: LFOB 252200Z AUTO 24008KT 210V270 9999 -RADZ BKN012 OVC018 14/12 Q1021 TEMPO 3000 DZ

Time: 00:24 (22:24 UTC)

Forecast

The report was made 2 hours and 4 minutes ago, at 20:20 UTC
Forecast valid from 25 at 20 UTC to 26 at 18 UTC
Wind 15 kt from the West
Visibility 10 km or more
Overcast at a height of 4000 ft
Temporary
from 25 at 21 UTC to 26 at 06 UTC
Visibility: 3000 m
Overcast at a height of 1000 ft
drizzle

TAF: LFOB 252020Z 2520/2618 26015KT 9999 OVC040 TEMPO 2521/2606 3000 DZ OVC010

Weather observations and forecasts of more than 4000 airports (METAR and TAF reports).

The available stations are represented by yellow and red dots on the map.

Hover mouse over dot to see the name of the station.

Then click to see weather observations and forecasts.

To change the map : click on the green buttons with a black cross to zoom in, on the green button with a dash to zoom out, or on the green arrows for adjacent maps.


METAR-TAF: